createdAt,value
2019-04-23T00:02:35.777Z,29.60
2019-04-23T00:05:09.807Z,29.60
2019-04-23T00:07:53.420Z,29.50
2019-04-23T00:12:44.119Z,29.80
2019-04-23T00:17:42.258Z,30.00
2019-04-23T00:20:15.374Z,30.80
2019-04-23T00:22:51.815Z,30.30
2019-04-23T00:30:46.672Z,30.40
2019-04-23T00:33:16.365Z,30.60
2019-04-23T00:35:41.732Z,30.60
2019-04-23T00:38:12.195Z,30.80
2019-04-23T00:40:39.086Z,30.90
2019-04-23T00:43:11.884Z,31.00
2019-04-23T00:48:14.847Z,31.20
2019-04-23T00:50:44.848Z,31.00
2019-04-23T00:53:12.049Z,30.90
2019-04-23T00:55:44.866Z,31.10
2019-04-23T00:58:25.059Z,31.30
2019-04-23T01:03:15.448Z,31.90
2019-04-23T01:05:45.497Z,32.30
2019-04-23T01:08:11.790Z,32.20
2019-04-23T01:10:52.348Z,32.60
2019-04-23T01:13:22.645Z,32.70
2019-04-23T01:15:46.790Z,32.70
2019-04-23T01:18:30.672Z,32.60
2019-04-23T01:20:52.763Z,32.50
2019-04-23T01:23:11.568Z,32.90
2019-04-23T01:25:53.297Z,32.80
2019-04-23T01:28:42.309Z,32.70
2019-04-23T01:31:13.092Z,32.90
2019-04-23T01:33:45.152Z,32.80
2019-04-23T01:38:40.501Z,32.70
2019-04-23T01:41:07.760Z,32.90
2019-04-23T01:46:09.576Z,33.00
2019-04-23T01:48:40.427Z,33.10
2019-04-23T01:51:04.115Z,33.30
2019-04-23T01:53:38.748Z,33.30
2019-04-23T01:56:14.781Z,33.30
2019-04-23T02:01:12.866Z,33.70
2019-04-23T02:03:42.701Z,34.00
2019-04-23T02:06:16.950Z,34.30
2019-04-23T02:08:47.092Z,34.20
2019-04-23T02:11:25.718Z,34.50
2019-04-23T02:13:43.966Z,34.50
2019-04-23T02:16:16.833Z,35.10
2019-04-23T02:18:41.663Z,35.20
2019-04-23T02:21:10.193Z,35.30
2019-04-23T02:23:43.977Z,35.50
2019-04-23T02:26:12.955Z,35.60
2019-04-23T02:31:32.195Z,35.40
2019-04-23T02:36:39.923Z,35.00
2019-04-23T02:41:26.556Z,35.50
2019-04-23T02:43:59.219Z,35.40
2019-04-23T02:48:59.993Z,35.60
2019-04-23T02:51:31.042Z,36.00
2019-04-23T03:01:25.325Z,36.50
2019-04-23T03:03:59.799Z,37.10
2019-04-23T03:11:38.473Z,37.50
2019-04-23T03:29:38.157Z,37.70
2019-04-23T03:35:08.754Z,37.90
2019-04-23T03:39:46.193Z,38.40
2019-04-23T03:42:02.692Z,39.30
2019-04-23T03:44:49.355Z,38.60
2019-04-23T03:47:06.516Z,38.70
2019-04-23T03:49:32.532Z,39.10
2019-04-23T03:52:09.730Z,39.10
2019-04-23T03:59:39.319Z,39.70
2019-04-23T04:02:19.689Z,39.60
2019-04-23T04:04:38.928Z,40.00
2019-04-23T04:07:26.518Z,39.80
2019-04-23T04:09:31.583Z,40.40
2019-04-23T04:12:10.682Z,39.60
2019-04-23T04:14:38.954Z,39.50
2019-04-23T04:17:12.451Z,39.50
2019-04-23T04:24:37.874Z,40.20
2019-04-23T04:27:12.348Z,40.20
2019-04-23T04:29:40.845Z,40.30
2019-04-23T04:37:36.193Z,40.10
2019-04-23T04:39:33.479Z,40.00
2019-04-23T04:42:06.237Z,40.00
2019-04-23T04:46:59.292Z,39.70
2019-04-23T04:49:46.095Z,40.00
2019-04-23T04:52:28.061Z,39.90
2019-04-23T04:54:22.994Z,40.10
2019-04-23T04:59:35.451Z,40.00
2019-04-23T05:04:37.002Z,39.60
2019-04-23T05:07:30.511Z,40.20
2019-04-23T05:09:40.718Z,40.00
2019-04-23T05:12:17.033Z,40.60
2019-04-23T05:17:13.405Z,40.70
2019-04-23T05:19:42.577Z,40.70
2019-04-23T05:24:42.956Z,40.50
2019-04-23T05:27:27.360Z,40.40
2019-04-23T05:29:36.319Z,40.50
2019-04-23T05:32:04.240Z,40.90
2019-04-23T05:34:42.987Z,40.80
2019-04-23T05:37:14.702Z,40.50
2019-04-23T05:39:39.729Z,40.30
2019-04-23T05:42:10.662Z,40.50
2019-04-23T05:44:48.038Z,40.70
2019-04-23T05:47:16.007Z,40.80
2019-04-23T05:49:37.876Z,41.60
2019-04-23T05:52:17.687Z,40.80
2019-04-23T05:54:43.216Z,40.90
2019-04-23T05:57:09.973Z,40.70
2019-04-23T05:59:43.680Z,40.60
2019-04-23T06:04:42.624Z,41.00
2019-04-23T06:07:22.077Z,41.00
2019-04-23T06:09:44.615Z,40.70
2019-04-23T06:12:25.482Z,40.10
2019-04-23T06:14:47.470Z,40.20
2019-04-23T06:17:14.436Z,39.90
2019-04-23T06:19:48.368Z,39.80
2019-04-23T06:24:43.037Z,39.90
2019-04-23T06:27:15.153Z,39.90
2019-04-23T06:29:44.706Z,40.00
2019-04-23T06:32:22.960Z,39.20
2019-04-23T06:34:43.635Z,39.00
2019-04-23T06:37:22.735Z,39.30
2019-04-23T06:42:14.570Z,38.40
2019-04-23T06:44:57.929Z,38.40
2019-04-23T06:47:35.613Z,38.30
2019-04-23T06:49:55.983Z,37.90
2019-04-23T06:52:35.117Z,37.50
2019-04-23T06:55:01.108Z,37.50
2019-04-23T06:57:22.661Z,36.70
2019-04-23T06:59:55.526Z,36.30
2019-04-23T07:02:28.643Z,36.10
2019-04-23T07:10:07.760Z,34.90
2019-04-23T07:12:42.731Z,34.60
2019-04-23T07:14:59.615Z,33.90
2019-04-23T07:17:24.329Z,33.90
2019-04-23T07:19:58.486Z,33.30
2019-04-23T07:22:45.653Z,33.00
2019-04-23T07:25:03.132Z,32.70
2019-04-23T07:27:27.824Z,33.10
2019-04-23T07:30:03.592Z,31.70
2019-04-23T07:32:48.039Z,32.30
2019-04-23T07:35:00.938Z,32.20
2019-04-23T07:37:32.545Z,31.40
2019-04-23T07:42:50.077Z,31.20
2019-04-23T07:48:13.387Z,30.80
2019-04-23T07:50:46.222Z,30.10
2019-04-23T07:58:19.578Z,30.00
2019-04-23T08:00:45.468Z,29.80
2019-04-23T08:05:59.172Z,29.20
2019-04-23T08:08:11.648Z,28.90
2019-04-23T08:11:18.027Z,29.00
2019-04-23T08:13:21.645Z,29.70
2019-04-23T08:15:57.413Z,29.30
2019-04-23T08:18:29.191Z,29.20
2019-04-23T08:20:55.646Z,27.90
2019-04-23T08:23:38.240Z,27.70
2019-04-23T08:26:31.132Z,28.00
2019-04-23T08:28:58.439Z,27.50
2019-04-23T08:31:21.994Z,27.40
2019-04-23T08:33:56.592Z,26.80
2019-04-23T08:36:29.542Z,26.70
2019-04-23T08:38:51.230Z,26.50
2019-04-23T08:41:28.418Z,26.80
2019-04-23T08:44:03.457Z,26.90
2019-04-23T08:46:52.090Z,26.80
2019-04-23T08:49:22.654Z,26.30
2019-04-23T08:54:26.579Z,26.60
2019-04-23T08:56:48.764Z,26.50
2019-04-23T08:59:26.609Z,26.70
2019-04-23T09:02:02.220Z,26.60
2019-04-23T09:04:17.969Z,26.50
2019-04-23T09:06:45.332Z,26.90
2019-04-23T09:09:22.673Z,26.20
2019-04-23T09:14:04.939Z,27.00
2019-04-23T09:16:52.859Z,26.80
2019-04-23T09:19:23.479Z,26.10
2019-04-23T09:21:50.357Z,26.30
2019-04-23T09:24:22.586Z,26.10
2019-04-23T09:26:53.616Z,27.00
2019-04-23T09:29:28.311Z,27.40
2019-04-23T09:34:42.950Z,26.80
2019-04-23T09:37:26.503Z,28.50
2019-04-23T09:39:51.182Z,28.80
2019-04-23T09:42:16.233Z,29.30
2019-04-23T09:47:41.740Z,29.30
2019-04-23T09:50:12.403Z,28.60
2019-04-23T09:52:37.462Z,28.10
2019-04-23T09:55:15.968Z,28.10
2019-04-23T09:57:38.006Z,28.00
2019-04-23T10:00:12.721Z,28.10
2019-04-23T10:02:27.378Z,28.10
2019-04-23T10:04:55.505Z,28.00
2019-04-23T10:07:25.158Z,28.00
2019-04-23T10:09:40.526Z,28.30
2019-04-23T10:12:09.607Z,28.50
2019-04-23T10:14:51.255Z,27.60
2019-04-23T10:17:10.358Z,26.50
2019-04-23T10:19:40.654Z,25.90
2019-04-23T10:22:09.272Z,26.00
2019-04-23T10:24:39.081Z,26.30
2019-04-23T10:27:08.317Z,26.70
2019-04-23T10:29:38.604Z,25.40
2019-04-23T10:32:07.624Z,25.50
2019-04-23T10:34:48.149Z,25.20
2019-04-23T10:37:07.281Z,25.10
2019-04-23T10:39:39.847Z,25.00
2019-04-23T10:42:07.779Z,24.70
2019-04-23T10:44:45.872Z,24.10
2019-04-23T10:48:02.636Z,24.10
2019-04-23T10:50:40.299Z,24.70
2019-04-23T10:53:15.599Z,24.60
2019-04-23T10:55:42.295Z,24.30
2019-04-23T10:58:08.205Z,24.40
2019-04-23T11:00:40.568Z,23.80
2019-04-23T11:03:21.676Z,24.10
2019-04-23T11:05:51.676Z,24.50
2019-04-23T11:08:02.314Z,24.60
2019-04-23T11:10:32.869Z,24.40
2019-04-23T11:13:25.785Z,24.40
2019-04-23T11:16:11.080Z,24.50
2019-04-23T11:18:31.251Z,24.80
2019-04-23T11:20:54.500Z,24.80
2019-04-23T11:23:27.363Z,23.70
2019-04-23T11:25:50.425Z,23.70
2019-04-23T11:28:27.298Z,23.90
2019-04-23T11:33:30.767Z,24.40
2019-04-23T11:36:20.302Z,24.20
2019-04-23T11:38:15.977Z,24.30
2019-04-23T11:41:00.965Z,24.20
2019-04-23T11:44:56.529Z,24.20
2019-04-23T11:46:10.277Z,22.60
2019-04-23T11:48:46.214Z,22.40
2019-04-23T11:53:35.593Z,21.70
2019-04-23T11:56:05.564Z,22.20
2019-04-23T12:01:40.057Z,22.30
2019-04-23T12:04:14.955Z,22.70
2019-04-23T12:06:45.989Z,23.20
2019-04-23T12:09:26.424Z,23.30
2019-04-23T12:17:07.891Z,23.20
2019-04-23T12:22:01.016Z,23.60
2019-04-23T12:27:00.992Z,24.10
2019-04-23T12:29:34.625Z,23.90
2019-04-23T12:32:35.567Z,24.10
2019-04-23T12:34:57.979Z,24.30
2019-04-23T12:37:35.103Z,24.50
2019-04-23T12:40:05.918Z,24.30
2019-04-23T12:45:17.271Z,24.80
2019-04-23T12:57:40.518Z,24.80
2019-04-23T13:00:07.153Z,24.80
2019-04-23T13:02:44.193Z,24.20
2019-04-23T13:05:10.303Z,24.90
2019-04-23T13:10:09.786Z,23.70
2019-04-23T13:12:48.038Z,23.90
2019-04-23T13:15:10.859Z,24.20
2019-04-23T13:17:50.465Z,24.00
2019-04-23T13:25:21.153Z,24.10
2019-04-23T13:30:32.384Z,24.30
2019-04-23T13:33:03.026Z,24.50
2019-04-23T13:35:38.060Z,24.10
2019-04-23T13:40:32.100Z,24.00
2019-04-23T13:43:14.914Z,24.10
2019-04-23T13:45:47.382Z,24.30
2019-04-23T13:48:00.676Z,24.20
2019-04-23T13:50:37.463Z,23.50
2019-04-23T13:55:24.854Z,23.40
2019-04-23T14:00:39.047Z,23.00
2019-04-23T14:03:13.961Z,23.10
2019-04-23T14:05:38.050Z,23.30
2019-04-23T14:13:37.816Z,22.90
2019-04-23T14:15:54.074Z,23.20
2019-04-23T14:20:38.361Z,23.00
2019-04-23T14:23:14.342Z,23.10
2019-04-23T14:25:56.702Z,23.30
2019-04-23T14:30:53.874Z,24.30
2019-04-23T14:33:17.511Z,24.30
2019-04-23T14:35:46.741Z,24.30
2019-04-23T14:43:26.191Z,24.60
2019-04-23T14:48:20.985Z,25.40
2019-04-23T14:51:00.878Z,24.40
2019-04-23T14:53:33.344Z,24.40
2019-04-23T14:56:13.183Z,24.40
2019-04-23T14:58:42.665Z,24.70
2019-04-23T15:11:21.423Z,24.10
2019-04-23T15:18:53.315Z,24.20
2019-04-23T15:21:37.349Z,24.10
2019-04-23T15:28:26.549Z,23.90
2019-04-23T15:31:20.780Z,24.00
2019-04-23T15:33:57.312Z,23.80
2019-04-23T15:38:53.634Z,24.20
2019-04-23T15:41:29.467Z,24.30
2019-04-23T15:43:51.381Z,24.20
2019-04-23T15:48:55.893Z,24.10
2019-04-23T15:51:31.013Z,23.90
2019-04-23T15:53:54.085Z,24.00
2019-04-23T15:56:26.903Z,24.00
2019-04-23T15:59:02.804Z,24.00
2019-04-23T16:01:29.019Z,23.80
2019-04-23T16:03:24.472Z,24.20
2019-04-23T16:05:53.171Z,23.90
2019-04-23T16:08:59.571Z,23.90
2019-04-23T16:11:36.497Z,24.20
2019-04-23T16:19:00.357Z,24.40
2019-04-23T16:21:44.463Z,23.90
2019-04-23T16:24:07.203Z,24.10
2019-04-23T16:31:34.573Z,24.40
2019-04-23T16:34:20.885Z,24.80
2019-04-23T16:36:41.442Z,24.50
2019-04-23T16:39:12.263Z,24.50
2019-04-23T16:41:42.224Z,24.10
2019-04-23T16:44:11.608Z,23.90
2019-04-23T16:46:48.296Z,24.30
2019-04-23T16:49:24.888Z,24.30
2019-04-23T16:51:37.396Z,24.50
2019-04-23T16:54:19.580Z,24.70
2019-04-23T16:57:01.206Z,25.20
2019-04-23T16:59:24.682Z,24.90
2019-04-23T17:01:43.709Z,24.80
2019-04-23T17:04:17.686Z,25.10
2019-04-23T17:06:57.749Z,25.40
2019-04-23T17:09:22.327Z,25.60
2019-04-23T17:11:44.489Z,25.70
2019-04-23T17:14:17.884Z,26.10
2019-04-23T17:16:39.425Z,26.40
2019-04-23T17:19:16.442Z,26.60
2019-04-23T17:21:44.408Z,26.80
2019-04-23T17:24:20.599Z,27.20
2019-04-23T17:26:51.838Z,27.70
2019-04-23T17:29:15.245Z,27.50
2019-04-23T17:31:39.522Z,27.80
2019-04-23T17:34:23.594Z,27.80
2019-04-23T17:36:57.602Z,27.80
2019-04-23T17:39:21.236Z,28.20
2019-04-23T17:42:05.220Z,28.20
2019-04-23T17:44:37.119Z,28.50
2019-04-23T17:47:14.036Z,28.60
2019-04-23T17:49:46.382Z,29.10
2019-04-23T17:52:17.135Z,28.90
2019-04-23T17:54:51.557Z,29.00
2019-04-23T17:57:15.607Z,29.10
2019-04-23T18:00:04.747Z,29.30
2019-04-23T18:02:51.156Z,29.40
2019-04-23T18:07:31.946Z,29.70
2019-04-23T18:09:58.343Z,29.80
2019-04-23T18:12:37.214Z,30.00
2019-04-23T18:14:50.881Z,30.10
2019-04-23T18:17:26.712Z,30.40
2019-04-23T18:20:14.870Z,30.20
2019-04-23T18:27:50.856Z,31.20
2019-04-23T18:30:19.229Z,31.40
2019-04-23T18:35:22.916Z,31.90
2019-04-23T18:37:58.571Z,32.70
2019-04-23T18:40:28.756Z,31.80
2019-04-23T18:42:53.795Z,32.00
2019-04-23T18:45:35.622Z,32.10
2019-04-23T18:47:56.973Z,32.40
2019-04-23T18:50:43.267Z,32.60
2019-04-23T18:53:02.829Z,32.80
2019-04-23T18:55:58.904Z,33.10
2019-04-23T18:58:09.562Z,33.00
2019-04-23T19:03:21.152Z,33.20
2019-04-23T19:06:01.037Z,33.30
2019-04-23T19:08:44.449Z,33.50
2019-04-23T19:11:13.397Z,33.80
2019-04-23T19:13:44.615Z,34.00
2019-04-23T19:16:15.980Z,34.30
2019-04-23T19:18:54.591Z,34.50
2019-04-23T19:21:48.997Z,34.50
2019-04-23T19:23:47.258Z,34.70
2019-04-23T19:26:41.869Z,34.90
2019-04-23T19:29:05.346Z,35.20
2019-04-23T19:31:47.101Z,35.40
2019-04-23T19:36:52.804Z,36.00
2019-04-23T19:39:19.333Z,36.20
2019-04-23T19:41:55.427Z,36.40
2019-04-23T19:44:08.677Z,36.70
2019-04-23T19:49:11.186Z,37.10
2019-04-23T19:54:20.625Z,37.40
2019-04-23T19:56:51.900Z,37.60
2019-04-23T19:59:14.131Z,37.90
2019-04-23T20:01:49.802Z,38.10
2019-04-23T20:04:10.201Z,38.30
2019-04-23T20:09:30.757Z,38.60
2019-04-23T20:11:53.252Z,38.80
2019-04-23T20:14:11.828Z,38.80
2019-04-23T20:17:17.612Z,39.00
2019-04-23T20:19:25.338Z,39.20
2019-04-23T20:22:11.197Z,39.50
2019-04-23T20:24:28.534Z,39.30
2019-04-23T20:27:01.617Z,39.70
2019-04-23T20:29:50.438Z,39.90
2019-04-23T20:34:59.118Z,40.20
2019-04-23T20:37:07.381Z,40.30
2019-04-23T20:39:49.180Z,40.40
2019-04-23T20:44:53.534Z,40.50
2019-04-23T20:49:47.154Z,40.70
2019-04-23T21:05:19.141Z,41.50
2019-04-23T21:10:27.657Z,42.00
2019-04-23T21:15:23.777Z,42.50
2019-04-23T21:17:58.105Z,42.30
2019-04-23T21:23:01.147Z,42.50
2019-04-23T21:25:28.353Z,42.50
2019-04-23T21:28:04.714Z,42.40
2019-04-23T21:30:55.835Z,42.50
2019-04-23T21:33:12.044Z,42.30
2019-04-23T21:36:12.501Z,42.20
2019-04-23T21:38:51.703Z,42.30
2019-04-23T21:41:16.853Z,42.50
2019-04-23T21:44:05.604Z,42.50
2019-04-23T21:49:03.367Z,42.40
2019-04-23T21:53:46.066Z,42.70
2019-04-23T21:56:16.763Z,42.90
2019-04-23T22:01:32.058Z,43.10
2019-04-23T22:06:28.605Z,43.20
2019-04-23T22:08:59.150Z,43.50
2019-04-23T22:14:03.774Z,44.10
2019-04-23T22:21:32.963Z,43.60
2019-04-23T22:26:28.991Z,43.80
2019-04-23T22:29:07.273Z,43.60
2019-04-23T22:36:29.286Z,45.00
2019-04-23T22:39:00.042Z,45.20
2019-04-23T22:41:36.347Z,45.60
2019-04-23T22:44:07.529Z,45.40
2019-04-23T22:46:38.021Z,45.90
2019-04-23T22:49:25.171Z,46.50
2019-04-23T22:51:46.270Z,46.60
2019-04-23T22:54:09.499Z,47.20
2019-04-23T22:56:51.922Z,47.60
2019-04-23T22:59:18.277Z,47.70
2019-04-23T23:01:56.932Z,47.70
2019-04-23T23:04:20.340Z,47.40
2019-04-23T23:09:25.403Z,48.00
2019-04-23T23:12:02.630Z,47.70
2019-04-23T23:14:20.206Z,47.30
2019-04-23T23:16:50.353Z,47.10
2019-04-23T23:19:25.482Z,47.20
2019-04-23T23:24:18.638Z,48.00
2019-04-23T23:26:54.367Z,48.30
2019-04-23T23:29:41.925Z,48.30
2019-04-23T23:36:54.712Z,48.20
2019-04-23T23:39:22.620Z,48.30
2019-04-23T23:47:00.677Z,48.60
2019-04-23T23:51:54.014Z,49.30
